createdAt,value
2017-10-10T00:00:42.703Z,13.41
2017-10-10T00:01:42.672Z,13.48
2017-10-10T00:02:42.662Z,13.47
2017-10-10T00:03:42.631Z,13.48
2017-10-10T00:04:42.947Z,13.44
2017-10-10T00:05:42.932Z,13.53
2017-10-10T00:06:42.572Z,13.53
2017-10-10T00:07:42.878Z,13.57
2017-10-10T00:08:42.532Z,13.56
2017-10-10T00:09:42.850Z,13.55
2017-10-10T00:10:42.823Z,13.59
2017-10-10T00:11:42.803Z,13.47
2017-10-10T00:12:42.455Z,13.56
2017-10-10T00:13:42.432Z,13.57
2017-10-10T00:14:42.096Z,13.6
2017-10-10T00:15:42.085Z,13.67
2017-10-10T00:16:42.393Z,13.63
2017-10-10T00:17:42.384Z,13.65
2017-10-10T00:18:42.662Z,13.59
2017-10-10T00:19:42.665Z,13.63
2017-10-10T00:20:42.643Z,13.44
2017-10-10T00:21:42.621Z,13.53
2017-10-10T00:22:42.614Z,13.44
2017-10-10T00:23:42.603Z,13.41
2017-10-10T00:24:42.542Z,13.48
2017-10-10T00:25:42.220Z,13.49
2017-10-10T00:26:42.186Z,13.59
2017-10-10T00:27:42.187Z,13.47
2017-10-10T00:28:42.473Z,13.42
2017-10-10T00:29:42.446Z,13.49
2017-10-10T00:30:42.432Z,13.48
2017-10-10T00:31:42.443Z,13.41
2017-10-10T00:32:42.071Z,13.4
2017-10-10T00:33:42.066Z,13.31
2017-10-10T00:34:42.047Z,13.44
2017-10-10T00:35:42.343Z,13.49
2017-10-10T00:36:41.992Z,13.44
2017-10-10T00:37:41.992Z,13.49
2017-10-10T00:38:42.295Z,13.53
2017-10-10T00:39:42.259Z,13.47
2017-10-10T00:40:41.974Z,13.41
2017-10-10T00:41:41.904Z,13.47
2017-10-10T00:42:41.554Z,13.48
2017-10-10T00:43:41.887Z,13.49
2017-10-10T00:44:41.888Z,13.45
2017-10-10T00:45:42.161Z,13.47
2017-10-10T00:46:41.802Z,13.47
2017-10-10T00:47:41.913Z,13.52
2017-10-10T00:48:42.205Z,13.52
2017-10-10T00:49:41.486Z,13.47
2017-10-10T00:50:42.193Z,13.52
2017-10-10T00:51:42.140Z,13.48
2017-10-10T00:52:41.694Z,13.47
2017-10-10T00:53:42.023Z,13.49
2017-10-10T00:54:41.773Z,13.47
2017-10-10T00:55:41.981Z,13.47
2017-10-10T00:56:41.283Z,13.52
2017-10-10T00:57:42.025Z,13.56
2017-10-10T00:58:41.246Z,13.52
2017-10-10T00:59:41.874Z,13.55
2017-10-10T01:00:41.975Z,13.45
2017-10-10T01:01:41.565Z,13.53
2017-10-10T01:02:41.504Z,13.55
2017-10-10T01:03:41.481Z,13.65
2017-10-10T01:04:41.544Z,13.59
2017-10-10T01:05:41.808Z,13.66
2017-10-10T01:06:41.514Z,13.7
2017-10-10T01:07:41.713Z,13.72
2017-10-10T01:08:41.378Z,13.62
2017-10-10T01:09:41.346Z,13.77
2017-10-10T01:10:41.721Z,13.65
2017-10-10T01:11:41.326Z,13.63
2017-10-10T01:12:41.367Z,13.65
2017-10-10T01:13:41.593Z,13.6
2017-10-10T01:14:41.354Z,13.63
2017-10-10T01:15:41.234Z,13.62
2017-10-10T01:16:41.542Z,13.63
2017-10-10T01:17:41.194Z,13.59
2017-10-10T01:18:41.528Z,13.62
2017-10-10T01:19:41.156Z,13.45
2017-10-10T01:20:41.571Z,13.42
2017-10-10T01:21:41.433Z,13.42
2017-10-10T01:22:40.772Z,13.41
2017-10-10T01:23:41.396Z,13.47
2017-10-10T01:24:41.493Z,13.47
2017-10-10T01:25:41.355Z,13.48
2017-10-10T01:26:41.017Z,13.45
2017-10-10T01:27:40.990Z,13.48
2017-10-10T01:28:40.974Z,13.41
2017-10-10T01:29:41.304Z,13.41
2017-10-10T01:30:40.953Z,13.38
2017-10-10T01:31:40.912Z,13.37
2017-10-10T01:32:41.246Z,13.35
2017-10-10T01:33:40.885Z,13.35
2017-10-10T01:34:41.202Z,13.41
2017-10-10T01:35:40.855Z,13.23
2017-10-10T01:36:40.834Z,13.41
2017-10-10T01:37:40.796Z,13.35
2017-10-10T01:38:41.105Z,13.33
2017-10-10T01:39:41.083Z,13.33
2017-10-10T01:40:41.072Z,13.22
2017-10-10T01:41:41.045Z,13.25
2017-10-10T01:42:40.381Z,13.18
2017-10-10T01:43:41.027Z,13.21
2017-10-10T01:44:41.001Z,13.26
2017-10-10T01:45:41.006Z,13.31
2017-10-10T01:46:40.953Z,13.38
2017-10-10T01:47:40.618Z,13.4
2017-10-10T01:48:40.904Z,13.33
2017-10-10T01:49:40.885Z,13.33
2017-10-10T01:50:40.873Z,13.38
2017-10-10T01:51:40.845Z,13.42
2017-10-10T01:52:40.837Z,13.37
2017-10-10T01:53:40.813Z,13.22
2017-10-10T01:54:40.804Z,13.18
2017-10-10T01:55:40.798Z,13.18
2017-10-10T01:56:40.755Z,13.26
2017-10-10T01:57:40.144Z,13.26
2017-10-10T01:58:40.392Z,13.29
2017-10-10T01:59:40.716Z,13.31
2017-10-10T02:00:40.346Z,13.35
2017-10-10T02:01:40.333Z,13.45
2017-10-10T02:02:40.648Z,13.48
2017-10-10T02:03:40.638Z,13.35
2017-10-10T02:04:40.275Z,13.41
2017-10-10T02:05:40.581Z,13.44
2017-10-10T02:06:39.913Z,13.45
2017-10-10T02:07:40.214Z,13.4
2017-10-10T02:08:40.510Z,13.33
2017-10-10T02:09:40.510Z,13.31
2017-10-10T02:10:40.502Z,13.23
2017-10-10T02:11:40.133Z,13.4
2017-10-10T02:12:40.434Z,13.37
2017-10-10T02:13:40.424Z,13.38
2017-10-10T02:14:40.096Z,13.41
2017-10-10T02:15:40.064Z,13.38
2017-10-10T02:16:40.462Z,13.25
2017-10-10T02:17:59.544Z,13.22
2017-10-10T02:18:40.339Z,13.15
2017-10-10T02:19:40.315Z,13.21
2017-10-10T02:20:40.434Z,13.26
2017-10-10T02:21:40.273Z,13.33
2017-10-10T02:22:39.974Z,13.31
2017-10-10T02:23:40.249Z,13.31
2017-10-10T02:24:40.214Z,13.35
2017-10-10T02:25:39.883Z,13.38
2017-10-10T02:26:40.285Z,13.28
2017-10-10T02:27:39.839Z,13.26
2017-10-10T02:28:40.170Z,13.38
2017-10-10T02:29:40.113Z,13.26
2017-10-10T02:30:40.214Z,13.29
2017-10-10T02:31:39.806Z,13.31
2017-10-10T02:32:40.071Z,13.4
2017-10-10T02:33:39.706Z,13.41
2017-10-10T02:34:40.023Z,13.35
2017-10-10T02:35:39.393Z,13.45
2017-10-10T02:36:39.664Z,13.45
2017-10-10T02:37:39.954Z,13.52
2017-10-10T02:38:39.624Z,13.48
2017-10-10T02:39:39.602Z,13.45
2017-10-10T02:40:39.914Z,13.52
2017-10-10T02:41:39.883Z,13.57
2017-10-10T02:42:39.953Z,13.59
2017-10-10T02:43:39.844Z,13.57
2017-10-10T02:44:39.174Z,13.45
2017-10-10T02:45:39.804Z,13.63
2017-10-10T02:46:39.455Z,13.52
2017-10-10T02:47:39.762Z,13.63
2017-10-10T02:48:39.726Z,13.65
2017-10-10T02:49:39.723Z,13.55
2017-10-10T02:50:39.056Z,13.56
2017-10-10T02:51:39.673Z,13.56
2017-10-10T02:52:39.336Z,13.59
2017-10-10T02:53:39.651Z,13.47
2017-10-10T02:54:38.972Z,13.52
2017-10-10T02:55:39.594Z,13.55
2017-10-10T02:56:39.594Z,13.44
2017-10-10T02:57:39.575Z,13.45
2017-10-10T02:58:39.538Z,13.45
2017-10-10T02:59:39.213Z,13.56
2017-10-10T03:00:39.504Z,13.62
2017-10-10T03:01:39.496Z,13.49
2017-10-10T03:02:39.132Z,13.6
2017-10-10T03:03:39.125Z,13.57
2017-10-10T03:04:39.104Z,13.57
2017-10-10T03:05:38.765Z,13.49
2017-10-10T03:06:39.407Z,13.52
2017-10-10T03:07:39.056Z,13.53
2017-10-10T03:08:39.031Z,13.57
2017-10-10T03:09:39.336Z,13.63
2017-10-10T03:10:39.313Z,13.56
2017-10-10T03:11:38.968Z,13.57
2017-10-10T03:12:38.955Z,13.65
2017-10-10T03:13:39.253Z,13.62
2017-10-10T03:14:39.244Z,13.57
2017-10-10T03:15:39.214Z,13.63
2017-10-10T03:16:38.867Z,13.48
2017-10-10T03:17:39.203Z,13.52
2017-10-10T03:18:39.157Z,13.53
2017-10-10T03:19:38.487Z,13.44
2017-10-10T03:20:39.120Z,13.4
2017-10-10T03:21:39.092Z,13.35
2017-10-10T03:22:39.073Z,13.41
2017-10-10T03:23:38.737Z,13.49
2017-10-10T03:24:39.026Z,13.49
2017-10-10T03:25:39.023Z,13.57
2017-10-10T03:26:38.687Z,13.57
2017-10-10T03:27:38.330Z,13.62
2017-10-10T03:28:38.659Z,13.59
2017-10-10T03:29:38.612Z,13.63
2017-10-10T03:30:38.929Z,13.63
2017-10-10T03:31:38.582Z,13.66
2017-10-10T03:32:38.883Z,13.66
2017-10-10T03:33:38.553Z,13.78
2017-10-10T03:34:38.841Z,13.74
2017-10-10T03:35:38.223Z,13.75
2017-10-10T03:36:38.483Z,13.6
2017-10-10T03:37:38.474Z,13.75
2017-10-10T03:38:38.776Z,13.6
2017-10-10T03:39:38.448Z,13.7
2017-10-10T03:40:38.723Z,13.7
2017-10-10T03:41:38.713Z,13.74
2017-10-10T03:42:38.683Z,13.72
2017-10-10T03:43:38.384Z,13.66
2017-10-10T03:44:38.325Z,13.66
2017-10-10T03:45:38.637Z,13.7
2017-10-10T03:46:38.633Z,13.75
2017-10-10T03:47:38.584Z,13.67
2017-10-10T03:48:38.263Z,13.74
2017-10-10T03:49:38.562Z,13.8
2017-10-10T03:50:38.208Z,13.74
2017-10-10T03:51:38.194Z,13.8
2017-10-10T03:52:38.494Z,13.75
2017-10-10T03:53:38.173Z,13.7
2017-10-10T03:54:38.464Z,13.81
2017-10-10T03:55:38.460Z,13.74
2017-10-10T03:56:38.421Z,13.65
2017-10-10T03:57:38.105Z,13.71
2017-10-10T03:58:38.383Z,13.67
2017-10-10T03:59:38.043Z,13.78
2017-10-10T04:00:38.105Z,13.67
2017-10-10T04:01:38.004Z,13.72
2017-10-10T04:02:38.313Z,13.75
2017-10-10T04:03:38.304Z,13.72
2017-10-10T04:04:38.263Z,13.66
2017-10-10T04:05:37.923Z,13.81
2017-10-10T04:06:37.924Z,13.7
2017-10-10T04:07:37.957Z,13.57
2017-10-10T04:08:38.195Z,13.63
2017-10-10T04:09:38.173Z,13.59
2017-10-10T04:10:37.829Z,13.56
2017-10-10T04:11:37.804Z,13.55
2017-10-10T04:12:37.463Z,13.59
2017-10-10T04:13:37.799Z,13.59
2017-10-10T04:14:37.783Z,13.62
2017-10-10T04:15:37.725Z,13.59
2017-10-10T04:16:38.043Z,13.6
2017-10-10T04:17:38.216Z,13.71
2017-10-10T04:18:37.734Z,13.65
2017-10-10T04:19:37.669Z,13.6
2017-10-10T04:20:37.947Z,13.63
2017-10-10T04:21:37.941Z,13.65
2017-10-10T04:22:37.912Z,13.63
2017-10-10T04:23:37.894Z,13.6
2017-10-10T04:24:37.894Z,13.6
2017-10-10T04:25:37.863Z,13.53
2017-10-10T04:26:37.843Z,13.62
2017-10-10T04:27:37.172Z,13.7
2017-10-10T04:28:37.162Z,13.63
2017-10-10T04:29:37.454Z,13.59
2017-10-10T04:30:37.498Z,13.56
2017-10-10T04:31:37.422Z,13.49
2017-10-10T04:32:37.734Z,13.66
2017-10-10T04:33:37.384Z,13.57
2017-10-10T04:34:37.361Z,13.57
2017-10-10T04:35:37.674Z,13.53
2017-10-10T04:36:37.643Z,13.65
2017-10-10T04:37:37.623Z,13.63
2017-10-10T04:38:37.735Z,13.72
2017-10-10T04:39:37.268Z,13.63
2017-10-10T04:40:37.583Z,13.78
2017-10-10T04:41:36.902Z,13.74
2017-10-10T04:42:37.213Z,13.7
2017-10-10T04:43:37.515Z,13.71
2017-10-10T04:44:37.489Z,13.72
2017-10-10T04:45:37.156Z,13.77
2017-10-10T04:46:37.144Z,13.7
2017-10-10T04:47:37.443Z,13.84
2017-10-10T04:48:37.428Z,13.78
2017-10-10T04:49:37.427Z,13.72
2017-10-10T04:50:37.056Z,13.82
2017-10-10T04:51:37.051Z,13.71
2017-10-10T04:52:37.022Z,13.71
2017-10-10T04:53:36.996Z,13.67
2017-10-10T04:54:37.326Z,13.59
2017-10-10T04:55:37.283Z,13.62
2017-10-10T04:56:37.276Z,13.75
2017-10-10T04:57:37.246Z,13.72
2017-10-10T04:58:36.580Z,13.78
2017-10-10T04:59:36.896Z,13.75
2017-10-10T05:00:37.182Z,13.7
2017-10-10T05:01:37.163Z,13.77
2017-10-10T05:02:37.142Z,13.7
2017-10-10T05:03:36.803Z,13.78
2017-10-10T05:04:36.463Z,13.74
2017-10-10T05:05:36.465Z,13.77
2017-10-10T05:06:37.067Z,13.66
2017-10-10T05:07:36.414Z,13.65
2017-10-10T05:08:37.035Z,13.71
2017-10-10T05:09:37.012Z,13.71
2017-10-10T05:10:36.669Z,13.72
2017-10-10T05:11:36.651Z,13.74
2017-10-10T05:12:36.955Z,13.75
2017-10-10T05:13:36.933Z,13.75
2017-10-10T05:14:36.611Z,13.71
2017-10-10T05:15:36.586Z,13.63
2017-10-10T05:16:36.225Z,13.67
2017-10-10T05:17:36.582Z,13.66
2017-10-10T05:18:36.843Z,13.62
2017-10-10T05:19:36.810Z,13.63
2017-10-10T05:20:36.806Z,13.59
2017-10-10T05:21:36.452Z,13.56
2017-10-10T05:22:36.752Z,13.66
2017-10-10T05:23:36.412Z,13.53
2017-10-10T05:24:36.734Z,13.6
2017-10-10T05:25:36.396Z,13.56
2017-10-10T05:26:36.376Z,13.63
2017-10-10T05:27:36.674Z,13.62
2017-10-10T05:28:36.656Z,13.78
2017-10-10T05:29:36.362Z,13.67
2017-10-10T05:30:36.326Z,13.71
2017-10-10T05:31:36.039Z,13.74
2017-10-10T05:32:36.562Z,13.75
2017-10-10T05:33:36.565Z,13.72
2017-10-10T05:34:36.230Z,13.71
2017-10-10T05:35:36.192Z,13.75
2017-10-10T05:36:36.177Z,13.7
2017-10-10T05:37:36.473Z,13.77
2017-10-10T05:38:36.457Z,13.82
2017-10-10T05:39:36.139Z,13.8
2017-10-10T05:40:36.147Z,13.77
2017-10-10T05:41:36.084Z,13.85
2017-10-10T05:42:36.064Z,13.81
2017-10-10T05:43:36.357Z,13.71
2017-10-10T05:44:36.033Z,13.75
2017-10-10T05:45:36.062Z,13.7
2017-10-10T05:46:36.302Z,13.65
2017-10-10T05:47:36.004Z,13.7
2017-10-10T05:48:36.266Z,13.63
2017-10-10T05:49:36.256Z,13.65
2017-10-10T05:50:35.901Z,13.65
2017-10-10T05:51:35.934Z,13.56
2017-10-10T05:52:36.193Z,13.78
2017-10-10T05:53:36.204Z,13.71
2017-10-10T05:54:36.147Z,13.72
2017-10-10T05:55:35.813Z,13.7
2017-10-10T05:56:36.119Z,13.72
2017-10-10T05:57:36.084Z,13.71
2017-10-10T05:58:36.076Z,13.71
2017-10-10T05:59:36.047Z,13.74
2017-10-10T06:00:36.023Z,13.7
2017-10-10T06:01:36.013Z,13.66
2017-10-10T06:02:36.023Z,13.74
2017-10-10T06:03:35.982Z,13.63
2017-10-10T06:04:35.672Z,13.7
2017-10-10T06:05:35.934Z,13.7
2017-10-10T06:06:35.642Z,13.63
2017-10-10T06:07:35.905Z,13.75
2017-10-10T06:08:35.874Z,13.7
2017-10-10T06:09:35.844Z,13.74
2017-10-10T06:10:35.603Z,13.8
2017-10-10T06:11:35.503Z,13.72
2017-10-10T06:12:35.811Z,13.67
2017-10-10T06:13:35.770Z,13.8
2017-10-10T06:14:35.447Z,13.75
2017-10-10T06:15:35.741Z,13.75
2017-10-10T06:16:35.742Z,13.63
2017-10-10T06:17:35.055Z,13.6
2017-10-10T06:18:35.034Z,13.78
2017-10-10T06:19:35.353Z,13.78
2017-10-10T06:20:35.664Z,13.75
2017-10-10T06:21:35.633Z,13.75
2017-10-10T06:22:35.284Z,13.72
2017-10-10T06:23:35.585Z,13.7
2017-10-10T06:24:35.572Z,13.72
2017-10-10T06:25:34.903Z,13.71
2017-10-10T06:26:35.513Z,13.74
2017-10-10T06:27:35.505Z,13.72
2017-10-10T06:28:34.850Z,13.78
2017-10-10T06:29:35.463Z,13.75
2017-10-10T06:30:34.806Z,13.72
2017-10-10T06:31:35.422Z,13.71
2017-10-10T06:32:35.081Z,13.75
2017-10-10T06:33:34.744Z,13.77
2017-10-10T06:34:35.374Z,13.74
2017-10-10T06:35:35.033Z,13.78
2017-10-10T06:36:35.334Z,13.67
2017-10-10T06:37:35.335Z,13.72
2017-10-10T06:38:34.982Z,13.74
2017-10-10T06:39:35.282Z,13.7
2017-10-10T06:40:35.273Z,13.75
2017-10-10T06:41:34.594Z,13.7
2017-10-10T06:42:34.899Z,13.66
2017-10-10T06:43:35.214Z,13.7
2017-10-10T06:44:35.173Z,13.74
2017-10-10T06:45:34.860Z,13.72
2017-10-10T06:46:34.814Z,13.67
2017-10-10T06:47:34.473Z,13.81
2017-10-10T06:48:34.774Z,13.72
2017-10-10T06:49:34.872Z,13.81
2017-10-10T06:50:34.744Z,13.84
2017-10-10T06:51:35.055Z,13.8
2017-10-10T06:52:34.703Z,13.8
2017-10-10T06:53:34.385Z,13.9
2017-10-10T06:54:34.344Z,13.93
2017-10-10T06:55:34.368Z,13.96
2017-10-10T06:56:34.941Z,13.9
2017-10-10T06:57:34.612Z,13.84
2017-10-10T06:58:34.904Z,13.81
2017-10-10T06:59:34.583Z,13.85
2017-10-10T07:00:34.555Z,13.82
2017-10-10T07:01:34.863Z,13.84
2017-10-10T07:02:34.842Z,13.81
2017-10-10T07:03:34.814Z,13.84
2017-10-10T07:04:34.483Z,13.77
2017-10-10T07:05:34.452Z,13.81
2017-10-10T07:06:34.763Z,13.85
2017-10-10T07:07:34.424Z,13.85
2017-10-10T07:08:34.076Z,13.72
2017-10-10T07:09:34.704Z,13.77
2017-10-10T07:10:34.685Z,13.81
2017-10-10T07:11:34.672Z,13.93
2017-10-10T07:12:34.331Z,13.97
2017-10-10T07:13:34.633Z,13.92
2017-10-10T07:14:34.603Z,13.96
2017-10-10T07:15:34.582Z,14
2017-10-10T07:16:33.926Z,14.07
2017-10-10T07:17:34.233Z,14.05
2017-10-10T07:18:34.212Z,14.05
2017-10-10T07:19:34.191Z,14
2017-10-10T07:20:34.496Z,14.02
2017-10-10T07:21:34.474Z,14
2017-10-10T07:22:34.446Z,14.13
2017-10-10T07:23:34.455Z,13.95
2017-10-10T07:24:34.083Z,13.95
2017-10-10T07:25:34.391Z,13.93
2017-10-10T07:26:34.110Z,14.14
2017-10-10T07:27:33.773Z,13.96
2017-10-10T07:28:34.344Z,13.99
2017-10-10T07:29:33.991Z,14.02
2017-10-10T07:30:34.304Z,14.14
2017-10-10T07:31:33.630Z,14.1
2017-10-10T07:32:33.931Z,14.11
2017-10-10T07:33:34.243Z,14.13
2017-10-10T07:34:34.225Z,14.13
2017-10-10T07:35:33.902Z,14.17
2017-10-10T07:36:33.874Z,14.18
2017-10-10T07:37:34.167Z,14.33
2017-10-10T07:38:34.134Z,14.15
2017-10-10T07:39:34.134Z,14.21
2017-10-10T07:40:33.783Z,14.22
2017-10-10T07:41:34.082Z,14.22
2017-10-10T07:42:33.756Z,14.18
2017-10-10T07:43:34.043Z,14.17
2017-10-10T07:44:34.032Z,14.15
2017-10-10T07:45:33.689Z,14.2
2017-10-10T07:46:33.993Z,14.15
2017-10-10T07:47:33.644Z,14.13
2017-10-10T07:48:33.945Z,14.22
2017-10-10T07:49:33.611Z,14.22
2017-10-10T07:50:33.932Z,14.2
2017-10-10T07:51:33.892Z,14.26
2017-10-10T07:52:33.563Z,14.3
2017-10-10T07:53:33.215Z,14.25
2017-10-10T07:54:33.866Z,14.33
2017-10-10T07:55:33.507Z,14.28
2017-10-10T07:56:33.491Z,14.26
2017-10-10T07:57:33.784Z,14.29
2017-10-10T07:58:33.762Z,14.29
2017-10-10T07:59:33.760Z,14.26
2017-10-10T08:00:33.405Z,14.32
2017-10-10T08:01:33.716Z,14.22
2017-10-10T08:02:33.697Z,14.3
2017-10-10T08:03:33.664Z,14.28
2017-10-10T08:04:33.652Z,14.35
2017-10-10T08:05:33.636Z,14.29
2017-10-10T08:06:33.623Z,14.36
2017-10-10T08:07:33.600Z,14.36
2017-10-10T08:08:33.576Z,14.36
2017-10-10T08:09:33.603Z,14.46
2017-10-10T08:10:33.535Z,14.38
2017-10-10T08:11:33.524Z,14.33
2017-10-10T08:12:33.505Z,14.33
2017-10-10T08:13:33.505Z,14.3
2017-10-10T08:14:33.475Z,14.35
2017-10-10T08:15:33.453Z,14.4
2017-10-10T08:16:33.103Z,14.4
2017-10-10T08:17:33.094Z,14.46
2017-10-10T08:18:33.410Z,14.51
2017-10-10T08:19:33.043Z,14.47
2017-10-10T08:20:33.025Z,14.54
2017-10-10T08:21:33.004Z,14.57
2017-10-10T08:22:33.000Z,14.53
2017-10-10T08:23:32.963Z,14.53
2017-10-10T08:24:32.955Z,14.54
2017-10-10T08:25:33.274Z,14.36
2017-10-10T08:26:33.234Z,14.4
2017-10-10T08:27:32.586Z,14.5
2017-10-10T08:28:32.900Z,14.53
2017-10-10T08:29:33.196Z,14.51
2017-10-10T08:30:33.162Z,14.53
2017-10-10T08:31:33.162Z,14.54
2017-10-10T08:32:33.132Z,14.53
2017-10-10T08:33:33.103Z,14.57
2017-10-10T08:34:32.772Z,14.54
2017-10-10T08:35:33.069Z,14.57
2017-10-10T08:36:33.045Z,14.63
2017-10-10T08:37:32.483Z,14.57
2017-10-10T08:38:32.380Z,14.5
2017-10-10T08:39:33.004Z,14.58
2017-10-10T08:40:32.654Z,14.62
2017-10-10T08:41:32.634Z,14.62
2017-10-10T08:42:32.645Z,14.68
2017-10-10T08:43:32.923Z,14.66
2017-10-10T08:44:32.914Z,14.6
2017-10-10T08:45:32.903Z,14.58
2017-10-10T08:46:32.584Z,14.6
2017-10-10T08:47:32.873Z,14.63
2017-10-10T08:48:32.184Z,14.68
2017-10-10T08:49:32.960Z,14.66
2017-10-10T08:50:32.143Z,14.62
2017-10-10T08:51:32.464Z,14.62
2017-10-10T08:52:32.114Z,14.63
2017-10-10T08:53:32.453Z,14.55
2017-10-10T08:54:32.721Z,14.54
2017-10-10T08:55:32.735Z,14.63
2017-10-10T08:56:32.463Z,14.66
2017-10-10T08:57:32.683Z,14.72
2017-10-10T08:58:32.763Z,14.68
2017-10-10T08:59:32.634Z,14.62
2017-10-10T09:00:32.735Z,14.62
2017-10-10T09:01:32.263Z,14.77
2017-10-10T09:02:32.593Z,14.8
2017-10-10T09:03:32.254Z,14.84
2017-10-10T09:04:32.654Z,14.85
2017-10-10T09:05:32.295Z,14.84
2017-10-10T09:06:32.194Z,14.85
2017-10-10T09:07:32.499Z,14.95
2017-10-10T09:08:32.595Z,15.1
2017-10-10T09:09:32.511Z,15.12
2017-10-10T09:10:32.566Z,15.09
2017-10-10T09:11:32.094Z,15.1
2017-10-10T09:12:32.408Z,15.24
2017-10-10T09:13:32.406Z,15.28
2017-10-10T09:14:32.362Z,15.34
2017-10-10T09:15:32.345Z,15.42
2017-10-10T09:16:32.326Z,15.46
2017-10-10T09:17:32.410Z,15.4
2017-10-10T09:18:31.966Z,15.46
2017-10-10T09:19:32.264Z,15.44
2017-10-10T09:20:32.252Z,15.49
2017-10-10T09:21:32.325Z,15.53
2017-10-10T09:22:32.222Z,15.54
2017-10-10T09:23:31.545Z,15.53
2017-10-10T09:24:32.292Z,15.54
2017-10-10T09:25:32.154Z,15.67
2017-10-10T09:26:32.243Z,15.79
2017-10-10T09:27:31.793Z,15.61
2017-10-10T09:28:31.782Z,15.64
2017-10-10T09:29:31.762Z,15.52
2017-10-10T09:30:31.733Z,15.64
2017-10-10T09:31:32.044Z,15.75
2017-10-10T09:32:32.030Z,15.72
2017-10-10T09:33:31.692Z,15.79
2017-10-10T09:34:31.686Z,15.77
2017-10-10T09:35:31.334Z,15.76
2017-10-10T09:36:31.631Z,15.69
2017-10-10T09:37:31.623Z,15.68
2017-10-10T09:38:31.280Z,15.64
2017-10-10T09:39:31.602Z,15.57
2017-10-10T09:40:31.575Z,15.57
2017-10-10T09:41:31.545Z,15.64
2017-10-10T09:42:31.865Z,15.57
2017-10-10T09:43:31.528Z,15.58
2017-10-10T09:44:31.814Z,15.64
2017-10-10T09:45:31.484Z,15.64
2017-10-10T09:46:31.468Z,15.69
2017-10-10T09:47:31.449Z,15.71
2017-10-10T09:48:31.091Z,15.71
2017-10-10T09:49:31.410Z,15.64
2017-10-10T09:50:31.386Z,15.64
2017-10-10T09:51:31.363Z,15.64
2017-10-10T09:52:31.682Z,15.64
2017-10-10T09:53:31.663Z,15.76
2017-10-10T09:54:31.332Z,15.72
2017-10-10T09:55:31.304Z,15.72
2017-10-10T09:56:31.635Z,15.71
2017-10-10T09:57:31.276Z,15.58
2017-10-10T09:58:31.243Z,15.6
2017-10-10T09:59:31.242Z,15.49
2017-10-10T10:00:30.895Z,15.53
2017-10-10T10:01:31.203Z,15.53
2017-10-10T10:02:31.502Z,15.52
2017-10-10T10:03:31.215Z,15.44
2017-10-10T10:04:31.146Z,15.46
2017-10-10T10:05:31.146Z,15.46
2017-10-10T10:06:31.439Z,15.52
2017-10-10T10:07:31.463Z,15.5
2017-10-10T10:08:31.405Z,15.6
2017-10-10T10:09:31.056Z,15.57
2017-10-10T10:10:31.362Z,15.6
2017-10-10T10:11:31.034Z,15.47
2017-10-10T10:12:31.328Z,15.6
2017-10-10T10:13:31.385Z,15.76
2017-10-10T10:14:31.292Z,15.8
2017-10-10T10:15:31.274Z,15.85
2017-10-10T10:16:31.268Z,15.98
2017-10-10T10:17:30.953Z,16.05
2017-10-10T10:18:31.214Z,16.08
2017-10-10T10:19:31.243Z,16.21
2017-10-10T10:20:31.273Z,16.31
2017-10-10T10:21:31.256Z,16.2
2017-10-10T10:22:31.172Z,16.34
2017-10-10T10:23:31.261Z,16.39
2017-10-10T10:24:31.254Z,16.28
2017-10-10T10:25:30.853Z,16.21
2017-10-10T10:26:31.135Z,16.27
2017-10-10T10:27:30.738Z,16.26
2017-10-10T10:28:30.733Z,16.35
2017-10-10T10:29:31.075Z,16.35
2017-10-10T10:30:31.080Z,16.45
2017-10-10T10:31:30.672Z,16.57
2017-10-10T10:32:30.984Z,16.58
2017-10-10T10:33:30.630Z,16.58
2017-10-10T10:34:31.034Z,16.75
2017-10-10T10:35:30.622Z,16.98
2017-10-10T10:36:30.923Z,17.08
2017-10-10T10:37:30.592Z,17.18
2017-10-10T10:38:30.553Z,17.33
2017-10-10T10:39:30.608Z,17.36
2017-10-10T10:40:30.902Z,17.27
2017-10-10T10:41:30.880Z,16.93
2017-10-10T10:42:30.823Z,16.89
2017-10-10T10:43:30.802Z,16.83
2017-10-10T10:44:30.795Z,16.57
2017-10-10T10:45:30.124Z,16.64
2017-10-10T10:46:30.110Z,16.74
2017-10-10T10:47:30.755Z,16.68
2017-10-10T10:48:30.742Z,16.76
2017-10-10T10:49:30.701Z,16.64
2017-10-10T10:50:30.372Z,16.72
2017-10-10T10:51:30.802Z,16.79
2017-10-10T10:52:30.672Z,16.61
2017-10-10T10:53:30.650Z,16.74
2017-10-10T10:54:30.627Z,16.63
2017-10-10T10:55:30.702Z,16.74
2017-10-10T10:56:30.639Z,16.74
2017-10-10T10:57:30.252Z,16.71
2017-10-10T10:58:30.247Z,16.69
2017-10-10T10:59:29.877Z,16.63
2017-10-10T11:00:30.242Z,16.74
2017-10-10T11:01:30.182Z,16.78
2017-10-10T11:02:30.161Z,16.61
2017-10-10T11:03:30.161Z,16.48
2017-10-10T11:04:30.441Z,16.34
2017-10-10T11:05:30.463Z,16.35
2017-10-10T11:06:30.104Z,16.32
2017-10-10T11:07:30.100Z,16.39
2017-10-10T11:08:30.391Z,16.36
2017-10-10T11:09:30.042Z,16.43
2017-10-10T11:10:30.022Z,16.45
2017-10-10T11:11:30.411Z,16.57
2017-10-10T11:12:30.009Z,16.58
2017-10-10T11:13:30.330Z,16.57
2017-10-10T11:14:30.296Z,16.64
2017-10-10T11:15:29.631Z,16.75
2017-10-10T11:16:29.602Z,16.83
2017-10-10T11:17:30.233Z,16.79
2017-10-10T11:18:30.213Z,16.9
2017-10-10T11:19:30.202Z,17.11
2017-10-10T11:20:29.533Z,17.06
2017-10-10T11:21:29.525Z,17.06
2017-10-10T11:22:30.155Z,17.11
2017-10-10T11:23:29.814Z,17.01
2017-10-10T11:24:29.813Z,16.98
2017-10-10T11:25:30.102Z,16.94
2017-10-10T11:26:30.076Z,17.08
2017-10-10T11:27:30.088Z,17.11
2017-10-10T11:28:30.051Z,17.08
2017-10-10T11:29:30.052Z,17.05
2017-10-10T11:30:29.382Z,17.14
2017-10-10T11:31:30.031Z,17.06
2017-10-10T11:32:29.349Z,17
2017-10-10T11:33:29.980Z,16.97
2017-10-10T11:34:29.296Z,16.87
2017-10-10T11:35:29.605Z,16.81
2017-10-10T11:36:29.934Z,16.83
2017-10-10T11:37:29.261Z,16.81
2017-10-10T11:38:29.565Z,16.83
2017-10-10T11:39:29.875Z,16.79
2017-10-10T11:40:29.851Z,16.79
2017-10-10T11:41:29.832Z,16.85
2017-10-10T11:42:29.815Z,16.82
2017-10-10T11:43:29.824Z,17.08
2017-10-10T11:44:29.805Z,17.06
2017-10-10T11:45:29.793Z,17.12
2017-10-10T11:46:29.736Z,17.01
2017-10-10T11:47:29.421Z,17.01
2017-10-10T11:48:29.404Z,17.01
2017-10-10T11:49:29.721Z,17.08
2017-10-10T11:50:29.702Z,17.05
2017-10-10T11:51:29.689Z,16.9
2017-10-10T11:52:29.338Z,16.71
2017-10-10T11:53:29.644Z,16.69
2017-10-10T11:54:29.622Z,16.69
2017-10-10T11:55:29.291Z,16.76
2017-10-10T11:56:29.279Z,16.79
2017-10-10T11:57:29.243Z,16.93
2017-10-10T11:58:29.587Z,16.89
2017-10-10T11:59:29.575Z,16.87
2017-10-10T12:00:29.214Z,16.93
2017-10-10T12:01:29.183Z,17.09
2017-10-10T12:02:29.506Z,17.11
2017-10-10T12:03:29.471Z,17.18
2017-10-10T12:04:29.471Z,17.22
2017-10-10T12:05:29.113Z,17.15
2017-10-10T12:06:29.440Z,17.15
2017-10-10T12:07:29.091Z,17.33
2017-10-10T12:08:29.392Z,17.19
2017-10-10T12:09:29.075Z,16.97
2017-10-10T12:10:29.366Z,17.08
2017-10-10T12:11:29.024Z,16.94
2017-10-10T12:12:29.012Z,16.91
2017-10-10T12:13:28.981Z,16.91
2017-10-10T12:14:29.283Z,16.94
2017-10-10T12:15:29.271Z,16.96
2017-10-10T12:16:28.952Z,17.05
2017-10-10T12:17:29.297Z,16.93
2017-10-10T12:18:28.904Z,16.98
2017-10-10T12:19:29.210Z,17.18
2017-10-10T12:20:29.195Z,17.18
2017-10-10T12:21:29.184Z,17.12
2017-10-10T12:22:28.954Z,17.08
2017-10-10T12:23:29.128Z,16.96
2017-10-10T12:24:29.141Z,16.78
2017-10-10T12:25:29.185Z,16.96
2017-10-10T12:26:29.093Z,16.89
2017-10-10T12:27:28.764Z,16.9
2017-10-10T12:28:29.082Z,16.9
2017-10-10T12:29:29.190Z,16.93
2017-10-10T12:30:29.060Z,16.89
2017-10-10T12:31:29.003Z,16.83
2017-10-10T12:32:29.019Z,16.79
2017-10-10T12:33:29.066Z,16.71
2017-10-10T12:34:28.966Z,16.79
2017-10-10T12:35:28.999Z,16.75
2017-10-10T12:36:28.938Z,16.72
2017-10-10T12:37:28.595Z,16.56
2017-10-10T12:38:28.904Z,16.6
2017-10-10T12:39:28.937Z,16.63
2017-10-10T12:40:28.892Z,16.76
2017-10-10T12:41:28.873Z,16.66
2017-10-10T12:42:28.842Z,16.79
2017-10-10T12:43:28.842Z,16.85
2017-10-10T12:44:28.803Z,16.79
2017-10-10T12:45:28.907Z,16.82
2017-10-10T12:46:28.780Z,16.94
2017-10-10T12:47:28.885Z,16.97
2017-10-10T12:48:28.722Z,16.83
2017-10-10T12:49:28.383Z,16.81
2017-10-10T12:50:28.707Z,16.87
2017-10-10T12:51:28.679Z,16.89
2017-10-10T12:52:28.324Z,16.81
2017-10-10T12:53:28.392Z,16.76
2017-10-10T12:54:28.653Z,16.9
2017-10-10T12:55:28.612Z,16.78